createdAt,value
2022-10-08T07:04:01.223Z,16.20
2022-10-08T07:04:38.174Z,16.30
2022-10-08T07:05:13.030Z,16.40
2022-10-08T07:05:47.516Z,16.40
2022-10-08T07:06:23.007Z,16.50
2022-10-08T07:06:56.654Z,16.60
2022-10-08T07:07:30.393Z,16.60
2022-10-08T07:08:15.640Z,16.70
2022-10-08T07:08:53.542Z,16.70
2022-10-08T07:09:30.574Z,16.80
2022-10-08T07:10:07.923Z,16.80
2022-10-08T07:10:43.600Z,16.90
2022-10-08T07:11:19.267Z,16.90
2022-10-08T07:11:54.260Z,17.00
2022-10-08T07:12:28.685Z,17.00
2022-10-08T07:13:02.606Z,17.00
2022-10-08T07:13:39.092Z,17.10
2022-10-08T07:14:15.313Z,17.10
2022-10-08T07:14:50.426Z,17.20
2022-10-08T07:15:26.462Z,17.30
2022-10-08T07:16:04.193Z,17.30
2022-10-08T07:16:38.638Z,17.40
2022-10-08T07:17:14.176Z,17.50
2022-10-08T07:17:50.374Z,17.50
2022-10-08T07:18:27.705Z,17.60
2022-10-08T07:19:02.120Z,17.70
2022-10-08T07:19:38.663Z,17.70
2022-10-08T07:20:14.063Z,17.80
2022-10-08T07:20:55.982Z,17.80
2022-10-08T07:21:32.617Z,17.90
2022-10-08T07:22:07.699Z,18.00
2022-10-08T07:24:29.358Z,18.20
2022-10-08T07:25:03.194Z,18.20
2022-10-08T07:25:40.158Z,18.30
2022-10-08T07:26:15.467Z,18.30
2022-10-08T07:26:51.772Z,18.40
2022-10-08T07:27:25.612Z,18.40
2022-10-08T07:28:01.088Z,18.40
2022-10-08T07:28:38.437Z,18.40
2022-10-08T07:29:14.800Z,18.50
2022-10-08T07:29:48.813Z,18.40
2022-10-08T07:30:24.253Z,18.50
2022-10-08T07:31:03.315Z,18.50
2022-10-08T07:31:40.417Z,18.50
2022-10-08T07:32:18.412Z,18.60
2022-10-08T07:32:54.101Z,18.60
2022-10-08T07:33:31.946Z,18.60
2022-10-08T07:34:08.988Z,18.60
2022-10-08T07:34:45.338Z,18.60
2022-10-08T07:35:19.372Z,18.60
2022-10-08T07:35:54.613Z,18.60
2022-10-08T07:36:30.046Z,18.60
2022-10-08T07:37:05.025Z,18.60
2022-10-08T07:37:42.781Z,18.70
2022-10-08T07:38:20.573Z,18.70
2022-10-08T07:38:56.368Z,18.70
2022-10-08T07:39:30.901Z,18.70
2022-10-08T07:40:09.194Z,18.70
2022-10-08T07:40:44.110Z,18.70
2022-10-08T07:41:17.215Z,18.70
2022-10-08T07:41:52.248Z,18.70
2022-10-08T07:42:27.167Z,18.70
2022-10-08T07:43:01.438Z,18.80
2022-10-08T07:43:36.145Z,18.80
2022-10-08T07:44:12.740Z,18.80
2022-10-08T07:44:47.513Z,18.80
2022-10-08T07:45:22.241Z,18.80
2022-10-08T07:45:56.643Z,18.80
2022-10-08T07:46:33.315Z,18.80
2022-10-08T07:47:09.854Z,18.80
2022-10-08T07:47:44.355Z,18.80
2022-10-08T07:48:20.993Z,18.80
2022-10-08T07:48:56.878Z,18.90
2022-10-08T07:49:32.942Z,18.90
2022-10-08T07:50:10.081Z,18.90
2022-10-08T07:50:44.963Z,18.90
2022-10-08T07:51:22.503Z,18.90
2022-10-08T07:51:55.729Z,19.00
2022-10-08T08:22:11.124Z,23.60
2022-10-08T08:22:45.684Z,23.70
2022-10-08T08:23:20.364Z,23.70
2022-10-08T08:23:57.787Z,23.80
2022-10-08T08:24:33.080Z,23.90
2022-10-08T08:25:09.207Z,24.00
2022-10-08T08:25:45.740Z,24.00
2022-10-08T08:26:22.490Z,24.10
2022-10-08T08:26:57.873Z,24.00
2022-10-08T08:27:33.196Z,24.00
2022-10-08T08:28:08.093Z,23.90
2022-10-08T08:28:43.704Z,23.80
2022-10-08T08:29:18.814Z,23.70
2022-10-08T08:29:53.989Z,23.70
2022-10-08T08:30:28.815Z,23.60
2022-10-08T08:31:13.008Z,23.60
2022-10-08T08:31:49.141Z,23.60
2022-10-08T08:32:28.430Z,23.50
2022-10-08T08:33:03.199Z,23.50
2022-10-08T08:33:37.729Z,23.50
2022-10-08T08:34:15.299Z,23.40
2022-10-08T08:34:49.290Z,23.40
2022-10-08T08:35:24.942Z,23.30
2022-10-08T08:35:59.658Z,23.30
2022-10-08T08:36:35.802Z,23.30
2022-10-08T08:37:11.730Z,23.40
2022-10-08T08:37:46.360Z,23.40
2022-10-08T08:38:21.323Z,23.40
2022-10-08T08:38:57.888Z,23.50
2022-10-08T08:39:34.627Z,23.50
2022-10-08T08:40:13.151Z,23.60
2022-10-08T08:40:47.848Z,23.60
2022-10-08T08:42:03.840Z,23.60
2022-10-08T08:42:51.036Z,23.60
2022-10-08T08:43:26.945Z,23.60
2022-10-08T08:44:01.819Z,23.50
2022-10-08T08:44:38.891Z,23.50
2022-10-08T08:45:45.237Z,23.40
2022-10-08T08:46:22.771Z,23.30
2022-10-08T08:47:05.892Z,23.10
2022-10-08T08:47:50.371Z,23.00
2022-10-08T08:48:33.802Z,22.80
2022-10-08T08:49:15.550Z,22.70
2022-10-08T08:49:56.083Z,22.60
2022-10-08T08:50:34.013Z,22.50
2022-10-08T08:51:11.721Z,22.40
2022-10-08T08:52:26.447Z,22.30
2022-10-08T08:53:00.858Z,22.20
2022-10-08T08:53:36.897Z,22.10
2022-10-08T08:54:10.836Z,22.00
2022-10-08T08:54:49.909Z,22.00
2022-10-08T08:55:34.243Z,21.90
2022-10-08T08:56:13.739Z,21.80
2022-10-08T08:56:53.830Z,21.80
2022-10-08T08:57:59.586Z,21.70
2022-10-08T08:58:39.068Z,21.60
2022-10-08T08:59:28.939Z,21.60
2022-10-08T09:00:09.362Z,21.50
2022-10-08T09:00:48.522Z,21.50
2022-10-08T09:01:32.177Z,21.40
2022-10-08T09:02:21.912Z,21.40
2022-10-08T09:03:00.153Z,21.40
2022-10-08T09:03:41.385Z,21.30
2022-10-08T09:04:24.222Z,21.30
2022-10-08T09:05:01.375Z,21.30
2022-10-08T09:05:43.111Z,21.30
2022-10-08T09:06:23.400Z,21.20
2022-10-08T09:06:58.994Z,21.20
2022-10-08T09:07:44.331Z,21.20
2022-10-08T09:08:23.076Z,21.20
2022-10-08T09:09:00.714Z,21.10
2022-10-08T09:09:39.270Z,21.10
2022-10-08T09:10:20.837Z,21.10
2022-10-08T09:10:58.071Z,21.00
2022-10-08T09:11:34.315Z,21.00
2022-10-08T09:12:20.635Z,21.00
2022-10-08T09:12:58.000Z,21.00
2022-10-08T09:13:37.436Z,21.00
2022-10-08T09:14:29.728Z,20.90
2022-10-08T09:15:06.385Z,20.90
2022-10-08T09:15:41.240Z,20.90
2022-10-08T09:16:17.340Z,20.90
2022-10-08T09:16:51.403Z,20.90
2022-10-08T09:17:31.528Z,20.90
2022-10-08T09:18:08.321Z,20.90
2022-10-08T09:18:43.719Z,20.90
2022-10-08T09:19:17.499Z,20.80
2022-10-08T09:19:53.721Z,20.80
2022-10-08T09:20:28.301Z,20.70
2022-10-08T09:21:02.759Z,20.70
2022-10-08T09:21:39.818Z,20.70
2022-10-08T09:22:24.435Z,20.70
2022-10-08T09:22:58.659Z,20.60
2022-10-08T09:23:34.175Z,20.60
2022-10-08T09:24:09.120Z,20.60
2022-10-08T09:24:43.542Z,20.50
2022-10-08T09:25:22.314Z,20.50
2022-10-08T09:26:02.739Z,20.50
2022-10-08T09:26:41.690Z,20.50
2022-10-08T09:27:24.367Z,20.50
2022-10-08T09:28:05.389Z,20.50
2022-10-08T09:28:46.787Z,20.50
2022-10-08T09:29:34.573Z,20.50
2022-10-08T09:30:28.541Z,20.60
2022-10-08T09:31:15.550Z,20.60
2022-10-08T09:31:51.119Z,20.70
2022-10-08T09:32:29.805Z,20.70
2022-10-08T09:33:19.086Z,20.70
2022-10-08T09:34:05.255Z,20.70
2022-10-08T09:34:40.862Z,20.70
2022-10-08T09:35:16.863Z,20.70
2022-10-08T09:35:53.410Z,20.70
2022-10-08T09:36:38.267Z,20.70
2022-10-08T09:37:23.858Z,20.70
2022-10-08T09:38:05.437Z,20.60
2022-10-08T09:38:40.548Z,20.50
2022-10-08T09:39:21.194Z,20.50
2022-10-08T09:40:18.830Z,20.40
2022-10-08T09:41:05.465Z,20.40
2022-10-08T09:41:40.375Z,20.30
2022-10-08T09:42:19.442Z,20.30
2022-10-08T09:43:14.820Z,20.20
2022-10-08T09:44:13.026Z,20.20
2022-10-08T09:44:49.091Z,20.10
2022-10-08T09:45:35.943Z,20.10
2022-10-08T09:46:28.846Z,20.00
2022-10-08T09:47:08.163Z,20.10
2022-10-08T09:47:42.530Z,20.10
2022-10-08T09:48:25.100Z,20.10
2022-10-08T09:49:29.907Z,20.10
2022-10-08T09:50:07.497Z,20.10
2022-10-08T09:51:03.210Z,20.10
2022-10-08T09:51:37.109Z,20.10
2022-10-08T09:52:21.422Z,20.10
2022-10-08T09:52:55.684Z,20.10
2022-10-08T09:53:36.894Z,20.10
2022-10-08T09:54:18.829Z,20.10
2022-10-08T09:55:01.537Z,20.10
2022-10-08T09:55:36.036Z,20.10
2022-10-08T09:56:17.823Z,20.10
2022-10-08T09:56:59.694Z,20.20
2022-10-08T09:57:44.174Z,20.20
2022-10-08T09:58:21.765Z,20.30
2022-10-08T09:58:59.950Z,20.40
2022-10-08T09:59:44.063Z,20.50
2022-10-08T10:00:34.188Z,20.50
2022-10-08T10:01:15.394Z,20.60
2022-10-08T10:01:50.376Z,20.70
2022-10-08T10:02:30.485Z,20.80
2022-10-08T10:03:07.815Z,20.90
2022-10-08T10:03:49.235Z,21.00
2022-10-08T10:04:33.836Z,21.20
2022-10-08T10:05:20.411Z,21.40
2022-10-08T10:05:57.643Z,21.50
2022-10-08T10:06:34.981Z,21.60
2022-10-08T10:07:09.310Z,21.70
2022-10-08T10:07:46.178Z,21.80
2022-10-08T10:08:49.409Z,21.80
2022-10-08T10:09:31.819Z,21.90
2022-10-08T10:10:16.831Z,22.10
2022-10-08T10:10:59.130Z,22.10
2022-10-08T10:11:40.468Z,22.10
2022-10-08T10:12:25.726Z,22.10
2022-10-08T10:13:04.624Z,22.10
2022-10-08T10:13:42.633Z,22.10
2022-10-08T10:14:25.919Z,22.10
2022-10-08T10:15:04.450Z,22.20
2022-10-08T10:15:43.828Z,22.20
2022-10-08T10:16:23.510Z,22.30
2022-10-08T10:17:03.250Z,22.30
2022-10-08T10:17:43.848Z,22.40
2022-10-08T10:18:23.560Z,22.40
2022-10-08T10:19:01.296Z,22.40
2022-10-08T10:19:47.255Z,22.40
2022-10-08T10:20:25.140Z,22.40
2022-10-08T10:21:04.851Z,22.40
2022-10-08T10:21:44.896Z,22.40
2022-10-08T10:22:25.158Z,22.50
2022-10-08T10:23:07.150Z,22.60
2022-10-08T10:23:47.158Z,22.80
2022-10-08T10:24:46.462Z,22.90
2022-10-08T10:25:31.352Z,23.20
2022-10-08T10:26:13.303Z,23.40
2022-10-08T10:26:50.512Z,23.60
2022-10-08T10:27:32.563Z,23.80
2022-10-08T10:28:13.046Z,23.90
2022-10-08T10:28:52.464Z,24.00
2022-10-08T10:29:33.967Z,24.10
2022-10-08T10:30:18.106Z,24.20
2022-10-08T10:31:02.389Z,24.20
2022-10-08T10:31:46.121Z,24.40
2022-10-08T10:32:23.934Z,24.50
2022-10-08T10:33:06.483Z,24.60
2022-10-08T10:33:48.430Z,24.70
2022-10-08T10:34:28.696Z,24.90
2022-10-08T10:35:11.292Z,25.00
2022-10-08T10:35:53.194Z,25.10
2022-10-08T10:51:27.140Z,25.10
2022-10-08T10:52:10.257Z,23.70
2022-10-08T10:53:00.392Z,23.50
2022-10-08T10:53:47.523Z,23.40
2022-10-08T10:54:33.473Z,23.30
2022-10-08T10:55:44.210Z,23.20
2022-10-08T10:56:20.246Z,23.10
2022-10-08T10:56:59.596Z,22.90
2022-10-08T10:57:50.739Z,22.80
2022-10-08T10:58:40.750Z,22.70
2022-10-08T10:59:30.166Z,22.50
2022-10-08T11:00:07.816Z,22.40
2022-10-08T11:00:53.779Z,22.30
2022-10-08T11:01:39.170Z,22.20
2022-10-08T11:02:25.992Z,22.10
2022-10-08T11:03:08.639Z,22.00
2022-10-08T11:03:49.509Z,21.90
2022-10-08T11:04:37.792Z,21.80
2022-10-08T11:05:19.870Z,21.70
2022-10-08T11:06:03.326Z,21.60
2022-10-08T11:07:09.567Z,21.60
2022-10-08T11:08:23.153Z,21.50
2022-10-08T11:09:05.159Z,21.40
2022-10-08T11:09:47.640Z,21.30
2022-10-08T11:10:35.339Z,21.20
2022-10-08T11:11:37.862Z,21.20
2022-10-08T11:12:30.532Z,21.10
2022-10-08T11:13:17.347Z,21.10
2022-10-08T11:51:34.281Z,19.80
2022-10-08T11:52:16.933Z,19.70
2022-10-08T11:52:52.542Z,19.70
2022-10-08T11:53:27.731Z,19.70
2022-10-08T11:54:17.250Z,19.60
2022-10-08T11:54:55.776Z,19.70
2022-10-08T11:55:34.722Z,19.60
2022-10-08T11:56:11.443Z,19.60
2022-10-08T11:56:47.408Z,19.60
2022-10-08T11:57:25.615Z,19.60
2022-10-08T11:58:09.755Z,19.50
2022-10-08T11:58:44.583Z,19.50
2022-10-08T11:59:32.529Z,19.50
2022-10-08T12:00:13.102Z,19.50
2022-10-08T12:00:50.630Z,19.40
2022-10-08T12:01:24.989Z,19.40
2022-10-08T12:02:00.296Z,19.30
2022-10-08T12:02:39.702Z,19.30
2022-10-08T12:03:28.237Z,19.30
2022-10-08T12:04:05.717Z,19.20
2022-10-08T12:04:41.429Z,19.20
2022-10-08T12:05:27.213Z,19.20
2022-10-08T12:06:14.729Z,19.20
2022-10-08T12:07:01.455Z,19.20
2022-10-08T12:07:40.282Z,19.20
2022-10-08T12:09:12.221Z,19.10
2022-10-08T12:10:23.569Z,19.10
2022-10-08T12:11:38.309Z,19.10
2022-10-08T12:12:14.874Z,19.00
2022-10-08T12:13:32.707Z,19.00
2022-10-08T12:14:30.012Z,19.00
2022-10-08T12:15:03.519Z,18.90
2022-10-08T12:15:59.740Z,18.90
2022-10-08T12:17:08.454Z,18.90
2022-10-08T12:17:55.478Z,18.80
2022-10-08T12:19:03.118Z,18.80
2022-10-08T12:20:00.444Z,18.80
2022-10-08T12:20:35.172Z,18.70
2022-10-08T12:21:55.697Z,18.70
2022-10-08T12:22:45.088Z,18.70
2022-10-08T12:23:42.360Z,18.60
2022-10-08T12:25:00.062Z,18.60
2022-10-08T12:26:03.386Z,18.60
2022-10-08T12:27:18.570Z,18.60
2022-10-08T12:28:18.232Z,18.50
2022-10-08T12:28:52.553Z,18.50
2022-10-08T12:29:50.202Z,18.50
2022-10-08T12:30:49.278Z,18.50
2022-10-08T12:32:02.586Z,18.50
2022-10-08T12:32:55.757Z,18.40
2022-10-08T12:33:32.051Z,18.40
2022-10-08T12:34:17.404Z,18.40
2022-10-08T12:34:52.442Z,18.40
2022-10-08T12:35:31.813Z,18.30
2022-10-08T12:36:19.583Z,18.30
2022-10-08T12:37:05.811Z,18.30
2022-10-08T12:38:11.340Z,18.30
2022-10-08T12:38:54.069Z,18.20
2022-10-08T12:39:36.974Z,18.20
2022-10-08T12:40:20.341Z,18.20
2022-10-08T12:41:02.522Z,18.10
2022-10-08T15:05:36.218Z,16.70
2022-10-08T15:06:16.953Z,16.70
2022-10-08T15:06:50.895Z,16.60
2022-10-08T15:07:25.488Z,16.60
2022-10-08T15:08:00.588Z,16.60
2022-10-08T15:08:35.873Z,16.60
2022-10-08T15:09:13.069Z,16.60
2022-10-08T15:09:48.804Z,16.60
2022-10-08T15:10:22.920Z,16.60
2022-10-08T15:10:58.023Z,16.60
2022-10-08T15:11:31.511Z,16.60
2022-10-08T15:12:06.762Z,16.60
2022-10-08T15:12:41.182Z,16.60
2022-10-08T15:13:15.023Z,16.60
2022-10-08T15:13:49.002Z,16.60
2022-10-08T15:14:25.531Z,16.50
2022-10-08T15:14:59.988Z,16.60
2022-10-08T15:15:39.847Z,16.50
2022-10-08T15:16:16.241Z,16.50
2022-10-08T15:16:51.096Z,16.50
2022-10-08T15:17:25.894Z,16.50
2022-10-08T15:17:59.796Z,16.50
2022-10-08T15:18:34.347Z,16.50
2022-10-08T15:19:11.027Z,16.50
2022-10-08T15:19:45.349Z,16.50
2022-10-08T15:20:20.073Z,16.50
2022-10-08T15:20:58.954Z,16.50
2022-10-08T15:21:33.952Z,16.50
2022-10-08T15:22:10.384Z,16.50
2022-10-08T15:22:44.795Z,16.50
2022-10-08T15:23:19.961Z,16.50
2022-10-08T15:23:57.529Z,16.50
2022-10-08T15:24:33.926Z,16.50
2022-10-08T15:25:10.385Z,16.50
2022-10-08T15:25:44.731Z,16.50
2022-10-08T15:26:20.775Z,16.50
2022-10-08T15:26:54.833Z,16.50
2022-10-08T15:27:31.495Z,16.50
2022-10-08T15:28:05.925Z,16.50
2022-10-08T15:28:42.477Z,16.50
2022-10-08T15:29:16.155Z,16.50
2022-10-08T15:29:49.612Z,16.50
2022-10-08T15:30:25.881Z,16.50
2022-10-08T15:31:07.396Z,16.50
2022-10-08T15:31:43.309Z,16.50
2022-10-08T15:32:17.215Z,16.50
2022-10-08T15:32:51.880Z,16.50
2022-10-08T15:33:31.828Z,16.50
2022-10-08T15:34:06.193Z,16.40
2022-10-08T15:34:42.279Z,16.50
2022-10-08T15:35:18.693Z,16.40
2022-10-08T15:35:52.984Z,16.50
2022-10-08T15:36:30.784Z,16.50
2022-10-08T15:37:05.375Z,16.40
2022-10-08T15:37:38.868Z,16.50
2022-10-08T15:38:15.294Z,16.40
2022-10-08T15:38:55.723Z,16.50
2022-10-08T15:39:35.685Z,16.50
2022-10-08T15:40:13.785Z,16.50
2022-10-08T15:40:48.504Z,16.50
2022-10-08T15:41:24.027Z,16.50
2022-10-08T15:41:58.878Z,16.50
2022-10-08T15:42:35.152Z,16.40
2022-10-08T15:43:09.979Z,16.40
2022-10-08T15:43:44.315Z,16.40
2022-10-08T15:44:22.445Z,16.40
2022-10-08T15:44:58.555Z,16.50
2022-10-08T15:45:33.384Z,16.40
2022-10-08T15:46:14.589Z,16.40
2022-10-08T15:46:53.938Z,16.40
2022-10-08T15:47:32.859Z,16.40
2022-10-08T15:48:12.029Z,16.40
2022-10-08T15:48:52.004Z,16.40
2022-10-08T15:49:33.273Z,16.40
2022-10-08T15:50:10.148Z,16.40
2022-10-08T15:50:46.339Z,16.40
2022-10-08T15:51:20.939Z,16.40
2022-10-08T15:51:55.474Z,16.40
2022-10-08T15:52:30.560Z,16.40
2022-10-08T15:53:05.720Z,16.40
2022-10-08T15:53:40.677Z,16.40
2022-10-08T15:54:15.120Z,16.40
2022-10-08T15:54:49.099Z,16.30
2022-10-08T15:55:24.131Z,16.40
2022-10-08T15:55:58.446Z,16.30
2022-10-08T15:56:32.966Z,16.40
2022-10-08T15:57:09.620Z,16.30
2022-10-08T15:57:43.366Z,16.30
2022-10-08T15:58:32.817Z,16.30
2022-10-08T15:59:13.434Z,16.30
2022-10-08T15:59:47.782Z,16.30
2022-10-08T16:00:37.237Z,16.30
2022-10-08T16:01:25.204Z,16.30
2022-10-08T16:01:59.414Z,16.30
2022-10-08T16:02:34.461Z,16.30
2022-10-08T16:03:09.369Z,16.30
2022-10-08T16:03:45.213Z,16.30
2022-10-08T16:04:19.767Z,16.30
2022-10-08T16:04:54.751Z,16.30
2022-10-08T16:05:30.551Z,16.30
2022-10-08T16:06:24.763Z,16.30
2022-10-08T16:07:00.562Z,16.20
2022-10-08T16:07:35.159Z,16.20
2022-10-08T16:08:10.398Z,16.20
2022-10-08T16:08:46.990Z,16.20
2022-10-08T16:09:22.878Z,16.20
2022-10-08T16:09:57.722Z,16.20
2022-10-08T16:10:32.688Z,16.20
2022-10-08T16:11:15.366Z,16.20
2022-10-08T16:11:50.778Z,16.20
2022-10-08T16:12:25.089Z,16.20
2022-10-08T16:13:01.353Z,16.10
2022-10-08T16:13:36.833Z,16.10
2022-10-08T16:14:13.420Z,16.10
2022-10-08T16:14:47.711Z,16.10
2022-10-08T16:15:24.115Z,16.10
2022-10-08T16:16:02.882Z,16.10
2022-10-08T16:16:40.352Z,16.10
2022-10-08T16:17:14.242Z,16.10
2022-10-08T16:17:49.917Z,16.10
2022-10-08T16:18:26.248Z,16.00
2022-10-08T16:19:02.275Z,16.00
2022-10-08T16:19:38.059Z,16.00
2022-10-08T16:20:13.032Z,16.00
2022-10-08T16:20:52.672Z,16.00
2022-10-08T16:21:28.219Z,16.00
2022-10-08T16:22:02.636Z,16.00
2022-10-08T16:22:39.060Z,16.00
2022-10-08T16:23:13.690Z,16.00
2022-10-08T16:23:49.654Z,16.00
2022-10-08T16:24:25.685Z,16.00
2022-10-08T16:25:01.182Z,16.00
2022-10-08T16:25:43.461Z,16.00
2022-10-08T16:26:21.259Z,16.00
2022-10-08T16:26:57.048Z,16.00
2022-10-08T16:27:31.577Z,16.00
2022-10-08T16:28:06.625Z,16.10
2022-10-08T16:28:43.977Z,16.10
2022-10-08T16:29:18.769Z,16.10
2022-10-08T16:29:54.432Z,16.10
2022-10-08T16:30:28.912Z,16.10
2022-10-08T16:31:03.727Z,16.10
2022-10-08T16:31:42.475Z,16.10
2022-10-08T16:32:17.404Z,16.10
2022-10-08T16:32:51.501Z,16.10
2022-10-08T16:33:27.463Z,16.10
2022-10-08T16:34:04.020Z,16.10
2022-10-08T16:34:39.412Z,16.10
2022-10-08T16:35:16.212Z,16.00
2022-10-08T16:35:50.244Z,16.00
2022-10-08T16:36:25.254Z,16.00
2022-10-08T16:37:01.736Z,16.00
2022-10-08T16:37:38.127Z,16.00
2022-10-08T16:38:12.555Z,16.00
2022-10-08T16:38:47.600Z,16.00
2022-10-08T16:39:25.967Z,16.00
2022-10-08T16:40:04.452Z,16.00
2022-10-08T16:40:39.386Z,16.00
2022-10-08T16:41:19.248Z,16.00
2022-10-08T16:41:53.648Z,16.00
2022-10-08T16:42:29.520Z,16.00
2022-10-08T16:43:05.118Z,16.00
2022-10-08T16:43:38.420Z,16.00
2022-10-08T16:44:15.340Z,16.00
2022-10-08T16:44:50.334Z,16.00
2022-10-08T16:45:26.932Z,16.00
2022-10-08T16:46:00.849Z,16.00
2022-10-08T16:46:39.293Z,16.00
2022-10-08T16:47:15.237Z,16.00
2022-10-08T16:47:51.447Z,16.00
2022-10-08T16:48:25.915Z,16.00
2022-10-08T16:49:00.792Z,16.00
2022-10-08T16:49:36.101Z,16.00
2022-10-08T16:50:12.563Z,16.00
2022-10-08T16:50:47.943Z,16.00
2022-10-08T16:51:25.679Z,16.00
2022-10-08T16:52:00.565Z,16.00
2022-10-08T16:52:36.262Z,16.00
2022-10-08T16:53:11.375Z,16.00
2022-10-08T16:53:47.928Z,16.00
2022-10-08T16:54:23.962Z,15.90
2022-10-08T16:54:58.961Z,15.90
2022-10-08T16:55:36.001Z,15.90
2022-10-08T16:56:10.987Z,15.90
2022-10-08T16:56:46.611Z,15.90
2022-10-08T16:58:31.316Z,15.90
2022-10-08T16:59:09.254Z,15.90
2022-10-08T16:59:43.527Z,15.90
2022-10-08T17:00:24.886Z,15.90
2022-10-08T17:01:08.324Z,15.90
2022-10-08T17:01:43.742Z,15.90
2022-10-08T17:02:25.624Z,15.80
2022-10-08T17:03:00.203Z,15.80
2022-10-08T17:03:34.432Z,15.80
2022-10-08T17:04:10.725Z,15.80
2022-10-08T17:04:44.709Z,15.80
2022-10-08T17:05:18.765Z,15.80
2022-10-08T17:05:54.876Z,15.80
2022-10-08T17:06:29.757Z,15.80
2022-10-08T17:07:05.691Z,15.80
2022-10-08T17:07:39.784Z,15.80
2022-10-08T17:08:13.896Z,15.70
2022-10-08T17:08:50.331Z,15.70
2022-10-08T17:09:24.883Z,15.70
2022-10-08T17:09:59.827Z,15.70
2022-10-08T17:10:36.328Z,15.60
2022-10-08T17:11:12.232Z,15.70
2022-10-08T17:11:45.957Z,15.70
2022-10-08T17:12:22.034Z,15.60
2022-10-08T17:12:56.336Z,15.60
2022-10-08T17:13:30.014Z,15.60
2022-10-08T17:14:08.187Z,15.60
2022-10-08T17:14:42.810Z,15.60
2022-10-08T17:15:19.044Z,15.60
2022-10-08T17:16:00.280Z,15.60
2022-10-08T17:16:36.094Z,15.60
2022-10-08T17:17:11.290Z,15.50
2022-10-08T17:17:52.085Z,15.50
2022-10-08T17:18:32.985Z,15.50
2022-10-08T17:19:08.218Z,15.60
2022-10-08T17:19:45.033Z,15.50
2022-10-08T17:20:19.422Z,15.50
2022-10-08T17:20:56.575Z,15.50
2022-10-08T17:21:34.464Z,15.50
2022-10-08T17:22:11.172Z,15.50
2022-10-08T17:22:45.729Z,15.50
2022-10-08T17:23:21.192Z,15.50
2022-10-08T17:24:00.937Z,15.50
2022-10-08T17:24:40.231Z,15.50
2022-10-08T17:25:15.881Z,15.50
2022-10-08T17:25:55.860Z,15.50
2022-10-08T17:26:32.277Z,15.50
2022-10-08T17:27:07.315Z,15.50
2022-10-08T17:27:41.066Z,15.50
2022-10-08T17:28:16.141Z,15.50
2022-10-08T17:28:52.795Z,15.50
2022-10-08T17:29:28.232Z,15.50
2022-10-08T17:30:04.062Z,15.50
2022-10-08T17:30:39.245Z,15.40
2022-10-08T17:31:16.437Z,15.50
2022-10-08T17:31:51.722Z,15.50
2022-10-08T17:32:26.023Z,15.50
2022-10-08T17:33:02.538Z,15.40
2022-10-08T17:33:38.050Z,15.50
2022-10-08T17:34:12.375Z,15.40
2022-10-08T17:34:45.755Z,15.40
2022-10-08T17:35:21.797Z,15.40
2022-10-08T17:36:01.475Z,15.40
2022-10-08T17:36:38.264Z,15.40
2022-10-08T17:37:12.306Z,15.40
2022-10-08T17:37:45.762Z,15.40
2022-10-08T17:38:27.893Z,15.40
2022-10-08T17:39:03.765Z,15.40
2022-10-08T17:39:39.177Z,15.40
2022-10-08T17:40:13.949Z,15.40
2022-10-08T17:40:47.895Z,15.50
2022-10-08T17:41:26.327Z,15.50
2022-10-08T17:42:04.833Z,15.40
2022-10-08T17:42:43.404Z,15.40
2022-10-08T17:43:17.703Z,15.40
2022-10-08T17:43:52.147Z,15.40
2022-10-08T17:44:27.220Z,15.40
2022-10-08T17:45:02.163Z,15.40
2022-10-08T17:45:36.048Z,15.40
2022-10-08T17:46:12.794Z,15.40
2022-10-08T17:46:47.537Z,15.40
2022-10-08T17:47:27.055Z,15.40
2022-10-08T17:48:05.692Z,15.40
2022-10-08T17:48:42.206Z,15.40
2022-10-08T17:49:17.642Z,15.40
2022-10-08T17:49:52.202Z,15.40
2022-10-08T17:50:26.951Z,15.40
2022-10-08T17:51:02.382Z,15.40
2022-10-08T17:51:37.692Z,15.40
2022-10-08T17:52:12.644Z,15.40
2022-10-08T17:52:46.707Z,15.40
2022-10-08T17:53:22.644Z,15.40
2022-10-08T17:54:00.930Z,15.40
2022-10-08T17:54:38.092Z,15.40
2022-10-08T17:55:16.619Z,15.30
2022-10-08T17:55:58.752Z,15.30
2022-10-08T17:56:34.837Z,15.30
2022-10-08T17:57:09.338Z,15.30
2022-10-08T17:57:44.184Z,15.30
2022-10-08T17:58:20.952Z,15.30
2022-10-08T17:58:57.423Z,15.30
2022-10-08T17:59:32.271Z,15.30
2022-10-08T18:00:06.303Z,15.30
2022-10-08T18:00:48.992Z,15.30
2022-10-08T18:01:24.879Z,15.30
2022-10-08T18:02:02.023Z,15.30
2022-10-08T18:02:35.974Z,15.30
2022-10-08T18:03:12.522Z,15.30
2022-10-08T18:03:53.318Z,15.30
2022-10-08T18:04:27.658Z,15.30
2022-10-08T18:05:01.884Z,15.20
2022-10-08T18:05:38.266Z,15.20
2022-10-08T18:06:13.332Z,15.20
2022-10-08T18:06:49.561Z,15.20
2022-10-08T18:07:23.824Z,15.20
2022-10-08T18:07:58.216Z,15.20
2022-10-08T18:08:36.903Z,15.30
2022-10-08T18:09:13.419Z,15.20
2022-10-08T18:09:52.611Z,15.20
2022-10-08T18:10:27.454Z,15.20
2022-10-08T18:11:02.702Z,15.20
2022-10-08T18:11:41.185Z,15.20
2022-10-08T18:12:16.000Z,15.20
2022-10-08T18:12:50.869Z,15.20
2022-10-08T18:13:26.531Z,15.20
2022-10-08T18:14:00.670Z,15.20
2022-10-08T18:14:36.382Z,15.20
2022-10-08T18:15:12.653Z,15.20
2022-10-08T18:15:46.633Z,15.20
2022-10-08T18:16:21.819Z,15.20
2022-10-08T18:16:58.048Z,15.20
2022-10-08T18:17:34.028Z,15.20
2022-10-08T18:18:09.332Z,15.20
2022-10-08T18:18:46.680Z,15.20
2022-10-08T18:19:21.811Z,15.20
2022-10-08T18:19:56.196Z,15.20
2022-10-08T18:20:30.225Z,15.20
2022-10-08T18:21:06.754Z,15.20
2022-10-08T18:21:42.737Z,15.30
2022-10-08T18:22:17.369Z,15.30
2022-10-08T18:22:52.247Z,15.30
2022-10-08T18:23:28.275Z,15.30
2022-10-08T18:24:04.179Z,15.30
2022-10-08T18:24:38.840Z,15.30
2022-10-08T18:25:12.668Z,15.30
2022-10-08T18:25:52.938Z,15.30
2022-10-08T18:26:29.413Z,15.30
2022-10-08T18:27:05.987Z,15.30
2022-10-08T18:27:41.571Z,15.30
2022-10-08T18:28:15.381Z,15.40
2022-10-08T18:28:52.390Z,15.30
2022-10-08T18:29:27.478Z,15.40
2022-10-08T18:30:03.076Z,15.40
2022-10-08T18:30:37.897Z,15.30
2022-10-08T18:31:13.777Z,15.30
2022-10-08T18:31:50.032Z,15.40
2022-10-08T18:32:24.540Z,15.40
2022-10-08T18:32:59.210Z,15.40
2022-10-08T18:33:35.225Z,15.30
2022-10-08T18:34:14.132Z,15.40
2022-10-08T18:34:49.427Z,15.40
2022-10-08T18:35:26.918Z,15.40
2022-10-08T18:36:09.907Z,15.40
2022-10-08T18:36:45.365Z,15.40
2022-10-08T18:37:21.090Z,15.40
2022-10-08T18:37:57.481Z,15.30
2022-10-08T18:38:33.704Z,15.40
2022-10-08T18:39:12.285Z,15.40
2022-10-08T18:39:47.972Z,15.40
2022-10-08T18:40:22.505Z,15.40
2022-10-08T18:40:56.856Z,15.40
2022-10-08T18:41:34.673Z,15.40
2022-10-08T18:42:10.017Z,15.40
2022-10-08T18:42:44.463Z,15.40
2022-10-08T18:43:21.287Z,15.40
2022-10-08T18:43:55.846Z,15.40
2022-10-08T18:44:32.010Z,15.40
2022-10-08T18:45:08.679Z,15.40
2022-10-08T18:45:45.197Z,15.40
2022-10-08T18:46:20.659Z,15.40
2022-10-08T18:46:55.125Z,15.40
2022-10-08T18:47:30.760Z,15.40
2022-10-08T18:48:05.601Z,15.30
2022-10-08T18:48:40.998Z,15.40
2022-10-08T18:49:20.164Z,15.40
2022-10-08T18:49:55.190Z,15.30
2022-10-08T18:50:30.604Z,15.30
2022-10-08T18:51:06.535Z,15.40
2022-10-08T18:51:42.193Z,15.30
2022-10-08T18:52:21.215Z,15.30
2022-10-08T18:52:57.771Z,15.30
2022-10-08T18:53:33.175Z,15.30
2022-10-08T18:54:08.501Z,15.30
2022-10-08T18:54:43.468Z,15.30
2022-10-08T18:55:18.264Z,15.30
2022-10-08T18:55:53.520Z,15.30
2022-10-08T18:56:30.723Z,15.30
2022-10-08T18:57:06.032Z,15.30
2022-10-08T18:57:40.604Z,15.30
2022-10-08T18:58:16.739Z,15.30
2022-10-08T18:58:53.844Z,15.30
2022-10-08T18:59:31.714Z,15.30
2022-10-08T19:00:08.644Z,15.30
2022-10-08T19:00:45.601Z,15.30
2022-10-08T19:01:22.582Z,15.30
2022-10-08T19:01:59.689Z,15.30
2022-10-08T19:02:35.784Z,15.30
2022-10-08T19:03:10.884Z,15.30
2022-10-08T19:04:10.656Z,15.40
2022-10-08T19:04:46.691Z,15.30
2022-10-08T19:05:21.215Z,15.30
2022-10-08T19:05:56.332Z,15.30
2022-10-08T19:06:32.874Z,15.30
2022-10-08T19:07:08.536Z,15.30
2022-10-08T19:07:42.681Z,15.40
2022-10-08T19:08:16.553Z,15.30
2022-10-08T19:08:52.628Z,15.30
2022-10-08T19:09:27.017Z,15.40
2022-10-08T19:10:02.577Z,15.40
2022-10-08T19:10:35.886Z,15.40
2022-10-08T19:11:12.781Z,15.40
2022-10-08T19:11:50.502Z,15.40
2022-10-08T19:12:24.074Z,15.40
2022-10-08T19:12:59.458Z,15.40